Time;durP1;ratioP1;P1;durP2;ratioP2;P2;SDS_P1;SDS_P2;PMS_P1;PMS_P2;Temp;Humidity;BMP_temperature;BMP_pressure;BME280_temperature;BME280_humidity;BME280_pressure;Samples;Min_cycle;Max_cycle;Signal;HPM_P1;HPM_P2
2022/06/19 00:02:15;;;;;;;11.40;7.73;;;22.00;94.30;;;22.07;63.02;100673.25;5075946;28;20524;-73
2022/06/19 00:04:48;;;;;;;10.93;7.40;;;21.90;94.90;;;22.05;62.77;100666.38;5052235;28;20463;-73
2022/06/19 00:07:17;;;;;;;10.90;8.43;;;21.80;95.40;;;21.97;63.24;100667.00;5060755;28;20413;-73
2022/06/19 00:09:47;;;;;;;9.60;8.70;;;21.80;95.60;;;21.91;63.05;100668.91;5057657;28;20465;-72
2022/06/19 00:12:19;;;;;;;8.57;7.00;;;21.70;95.90;;;21.87;63.57;100658.72;5047231;28;20451;-73
2022/06/19 00:14:48;;;;;;;8.80;7.40;;;21.70;96.40;;;21.80;63.81;100648.00;5054180;28;20451;-73
2022/06/19 00:17:18;;;;;;;8.90;7.77;;;21.60;96.90;;;21.77;63.48;100637.56;5057215;28;20417;-72
2022/06/19 00:19:47;;;;;;;12.70;7.80;;;21.60;97.50;;;21.74;64.01;100632.59;5056074;28;20469;-73
2022/06/19 00:22:16;;;;;;;8.80;7.80;;;21.60;98.00;;;21.74;64.06;100632.59;5050830;28;20437;-74
2022/06/19 00:24:45;;;;;;;7.67;6.97;;;21.50;98.30;;;21.78;63.93;100630.97;5049692;28;20496;-73
2022/06/19 00:27:15;;;;;;;9.67;8.33;;;21.50;98.40;;;21.80;63.56;100625.97;5060579;28;20900;-72
2022/06/19 00:29:46;;;;;;;9.67;7.70;;;21.60;98.20;;;21.80;63.64;100625.97;5059108;28;20434;-73
2022/06/19 00:32:16;;;;;;;7.63;7.03;;;21.60;98.00;;;21.74;63.87;100632.59;5064012;28;21012;-73
2022/06/19 00:34:45;;;;;;;8.60;7.80;;;21.50;98.20;;;21.79;63.64;100629.84;5048522;28;20437;-72
2022/06/19 00:37:14;;;;;;;9.23;8.10;;;21.60;98.00;;;21.81;63.67;100633.13;5047619;28;20504;-73
2022/06/19 00:39:44;;;;;;;9.20;8.30;;;21.60;97.80;;;21.78;63.67;100622.69;5049421;28;20464;-74
2022/06/19 00:42:16;;;;;;;6.90;6.27;;;21.60;97.80;;;21.78;63.23;100605.34;5048674;28;20805;-74
2022/06/19 00:44:47;;;;;;;8.50;7.77;;;21.50;97.50;;;21.84;63.00;100612.44;5042303;28;20475;-72
2022/06/19 00:47:21;;;;;;;9.57;7.60;;;21.60;97.10;;;21.82;63.16;100600.91;5043647;28;20500;-73
2022/06/19 00:49:55;;;;;;;7.63;6.90;;;21.60;96.50;;;21.79;63.11;100588.53;5047180;28;20896;-74
2022/06/19 00:52:30;;;;;;;8.50;7.67;;;21.60;96.70;;;21.85;63.13;100575.53;5047803;28;20437;-74
2022/06/19 00:55:08;;;;;;;11.60;7.60;;;21.60;96.10;;;21.75;63.16;100573.66;5048398;28;20431;-74
2022/06/19 00:57:43;;;;;;;9.83;8.10;;;21.60;96.40;;;21.77;63.03;100582.50;5050552;28;20447;-75
2022/06/19 01:00:24;;;;;;;8.00;7.30;;;21.60;96.00;;;21.79;62.76;100585.75;5051323;28;20467;-74
2022/06/19 01:02:58;;;;;;;7.93;7.23;;;21.60;95.60;;;21.77;63.13;100585.25;5051299;28;20469;-74
2022/06/19 01:05:30;;;;;;;7.13;6.47;;;21.50;95.50;;;21.81;62.62;100578.06;5057817;28;20455;-73
2022/06/19 01:08:03;;;;;;;7.20;6.53;;;21.60;94.80;;;21.79;62.66;100579.44;5052876;28;20446;-74
2022/06/19 01:10:35;;;;;;;9.10;8.20;;;21.60;95.00;;;21.78;63.13;100578.63;5056830;28;20424;-73
2022/06/19 01:13:04;;;;;;;8.07;7.20;;;21.60;95.00;;;21.69;62.97;100575.63;5053092;28;20444;-73
2022/06/19 01:15:35;;;;;;;8.60;7.90;;;21.50;95.40;;;21.74;63.14;100565.69;5057632;28;20500;-74
2022/06/19 01:18:09;;;;;;;11.03;8.07;;;21.50;95.40;;;21.67;63.14;100560.50;5058310;28;20425;-75
2022/06/19 01:20:42;;;;;;;8.13;7.30;;;21.50;95.90;;;21.62;63.16;100560.53;5059391;28;20487;-74
2022/06/19 01:23:20;;;;;;;9.40;6.37;;;21.40;95.90;;;21.55;63.78;100554.50;5058313;28;20440;-74
2022/06/19 01:25:53;;;;;;;7.80;7.00;;;21.40;96.70;;;21.59;63.15;100547.34;5055207;28;20529;-72
2022/06/19 01:31:17;;;;;;;8.57;6.40;;;21.30;97.10;;;21.58;63.16;100534.69;5058218;28;20466;-73
2022/06/19 01:33:53;;;;;;;8.00;7.23;;;21.30;96.70;;;21.59;63.04;100525.31;5050262;28;20479;-73
2022/06/19 01:36:24;;;;;;;8.50;7.50;;;21.40;96.40;;;21.67;62.93;100528.28;5053385;28;20454;-73
2022/06/19 01:38:55;;;;;;;7.97;7.20;;;21.40;95.20;;;21.63;63.11;100515.38;5062421;28;20482;-73
2022/06/19 01:41:31;;;;;;;8.00;7.27;;;21.40;95.10;;;21.67;62.80;100500.75;5055326;28;20494;-72
2022/06/19 01:44:01;;;;;;;7.33;6.67;;;21.40;94.60;;;21.72;62.55;100497.16;5048437;28;20466;-74
2022/06/19 01:46:31;;;;;;;8.00;7.30;;;21.40;94.30;;;21.67;62.42;100508.19;5059069;28;20451;-74
2022/06/19 01:49:01;;;;;;;7.20;6.50;;;21.50;93.80;;;21.69;62.77;100492.19;5056285;28;20845;-74
2022/06/19 01:51:30;;;;;;;7.30;6.70;;;21.40;93.70;;;21.71;62.23;100484.47;5051538;28;20437;-73
2022/06/19 01:54:06;;;;;;;7.60;6.80;;;21.40;93.40;;;21.66;62.46;100479.00;5051326;28;20446;-75
2022/06/19 01:56:37;;;;;;;8.07;6.77;;;21.40;93.40;;;21.59;62.70;100475.75;5068538;28;20961;-75
2022/06/19 01:59:11;;;;;;;8.10;7.00;;;21.40;93.60;;;21.59;62.92;100481.25;5078183;28;21044;-75
2022/06/19 02:01:41;;;;;;;7.33;6.63;;;21.40;93.70;;;21.68;62.15;100463.03;5057898;28;20552;-73
2022/06/19 02:04:10;;;;;;;6.33;5.73;;;21.40;93.20;;;21.68;62.14;100457.53;5052732;28;20524;-73
2022/06/19 02:06:47;;;;;;;6.50;6.00;;;21.40;92.90;;;21.70;62.06;100455.28;5051428;28;20487;-73
2022/06/19 02:09:20;;;;;;;7.60;6.90;;;21.40;92.50;;;21.62;62.53;100456.72;5062867;28;20434;-73
2022/06/19 02:11:51;;;;;;;7.33;6.73;;;21.40;92.50;;;21.71;62.13;100456.09;5053612;28;20503;-74
2022/06/19 02:14:22;;;;;;;7.50;6.27;;;21.40;92.50;;;21.64;62.23;100462.75;5062058;28;20993;-74
2022/06/19 02:16:52;;;;;;;7.30;6.60;;;21.40;92.50;;;21.61;62.38;100460.59;5053332;28;20441;-72
2022/06/19 02:19:21;;;;;;;6.90;6.30;;;21.40;92.60;;;21.68;62.07;100465.78;5060975;28;20409;-72
2022/06/19 02:21:53;;;;;;;7.30;6.67;;;21.40;92.50;;;21.72;62.13;100455.84;5046147;28;20442;-73
2022/06/19 02:24:26;;;;;;;7.00;6.30;;;21.40;91.70;;;21.73;62.00;100438.22;5057683;28;20460;-74
2022/06/19 02:26:58;;;;;;;7.03;6.43;;;21.40;91.00;;;21.72;62.01;100442.06;5065233;28;20429;-73
2022/06/19 02:29:27;;;;;;;7.60;6.97;;;21.50;90.80;;;21.70;61.89;100430.50;5061784;28;20541;-75
2022/06/19 02:31:57;;;;;;;7.10;6.40;;;21.50;90.70;;;21.76;61.52;100420.28;5066758;28;20462;-74
2022/06/19 02:34:32;;;;;;;7.37;6.53;;;21.50;90.30;;;21.67;62.02;100420.06;5055748;28;20405;-74
2022/06/19 02:37:04;;;;;;;7.90;7.10;;;21.40;90.10;;;21.77;61.60;100408.97;5067394;28;20449;-74
2022/06/19 02:39:49;;;;;;;8.43;7.17;;;21.50;90.20;;;21.71;61.57;100404.63;5057333;28;20783;-75
2022/06/19 02:42:42;;;;;;;7.03;6.33;;;21.50;90.00;;;21.77;61.47;100394.38;5067925;28;20506;-74
2022/06/19 02:45:17;;;;;;;6.40;5.80;;;21.50;89.90;;;21.85;61.26;100391.81;5057290;28;20473;-73
2022/06/19 02:47:48;;;;;;;10.40;6.93;;;21.50;88.80;;;21.82;61.25;100386.91;5060082;28;21053;-74
2022/06/19 02:50:21;;;;;;;7.17;6.57;;;21.50;88.00;;;21.87;61.14;100388.78;5065310;28;20409;-73
2022/06/19 02:52:51;;;;;;;7.40;6.70;;;21.60;86.70;;;21.82;61.16;100381.41;5060254;28;20475;-75
2022/06/19 02:55:22;;;;;;;12.87;7.63;;;21.50;86.40;;;21.79;61.33;100378.38;5051345;28;20443;-73
2022/06/19 02:57:53;;;;;;;7.40;6.67;;;21.50;87.20;;;21.83;61.34;100374.78;5054233;28;20443;-74
2022/06/19 03:00:26;;;;;;;8.30;7.60;;;21.50;86.80;;;21.83;61.47;100376.72;5063546;28;20431;-75
2022/06/19 03:03:01;;;;;;;8.73;7.93;;;21.60;86.90;;;21.71;61.76;100368.81;5047053;28;20488;-73
2022/06/19 03:05:31;;;;;;;7.47;6.80;;;21.50;87.40;;;21.76;61.58;100363.25;5051933;28;20467;-72
2022/06/19 03:08:00;;;;;;;6.90;6.30;;;21.50;88.80;;;21.82;61.30;100364.88;5052004;28;20908;-74
2022/06/19 03:10:30;;;;;;;7.50;6.90;;;21.50;88.50;;;21.79;61.30;100364.59;5054306;28;20522;-72
2022/06/19 03:13:01;;;;;;;8.80;7.97;;;21.50;88.70;;;21.85;61.24;100347.75;5061821;28;20971;-73
2022/06/19 03:15:31;;;;;;;7.40;6.70;;;21.50;88.10;;;21.86;61.37;100348.59;5063461;28;20437;-72
2022/06/19 03:18:00;;;;;;;9.43;6.80;;;21.50;88.70;;;21.80;61.75;100358.81;5048518;28;20939;-75
2022/06/19 03:20:30;;;;;;;7.00;6.40;;;21.50;88.40;;;21.97;61.04;100347.41;5054555;28;20447;-74
2022/06/19 03:22:59;;;;;;;7.53;6.90;;;21.60;87.30;;;21.96;61.09;100349.34;5055001;28;20557;-73
2022/06/19 03:25:28;;;;;;;9.60;7.33;;;21.60;86.50;;;22.03;61.10;100338.78;5048781;28;20456;-74
2022/06/19 03:27:59;;;;;;;9.23;7.17;;;21.60;85.60;;;22.13;60.52;100337.03;5042831;28;20465;-73
2022/06/19 03:30:30;;;;;;;8.63;7.83;;;21.70;85.00;;;22.17;60.69;100329.84;5049281;28;20448;-73
2022/06/19 03:32:59;;;;;;;8.20;7.50;;;21.70;83.60;;;22.27;60.22;100322.25;5050990;28;20561;-74
2022/06/19 03:35:28;;;;;;;8.97;8.27;;;21.80;81.60;;;22.29;60.12;100324.72;5049516;28;20495;-73
2022/06/19 03:37:57;;;;;;;9.63;6.53;;;21.80;81.10;;;22.32;60.09;100299.31;5050454;28;20459;-72
2022/06/19 03:40:26;;;;;;;8.63;7.33;;;21.80;79.60;;;22.39;59.90;100291.53;5051908;28;21241;-73
2022/06/19 03:42:56;;;;;;;7.70;7.00;;;21.90;79.50;;;22.53;59.79;100286.94;5049696;28;20449;-72
2022/06/19 03:45:25;;;;;;;8.43;7.40;;;22.00;76.90;;;22.76;58.98;100288.03;5051701;28;20444;-73
2022/06/19 03:47:56;;;;;;;9.10;7.07;;;22.10;75.30;;;22.99;58.35;100300.13;5052820;28;20422;-74
2022/06/19 03:50:25;;;;;;;9.47;8.67;;;22.20;71.90;;;23.19;57.78;100294.31;5052262;28;20493;-74
2022/06/19 03:52:54;;;;;;;7.43;6.80;;;22.40;67.20;;;23.28;57.43;100287.81;5052404;28;20463;-72
2022/06/19 03:55:24;;;;;;;8.30;7.50;;;22.50;64.20;;;23.43;57.12;100283.16;5051561;28;20418;-73
2022/06/19 03:57:53;;;;;;;8.73;7.93;;;22.60;60.00;;;23.61;56.51;100274.84;5051359;28;20405;-74
2022/06/19 04:00:23;;;;;;;9.97;8.03;;;22.70;58.20;;;23.70;56.35;100277.72;5057799;28;20409;-74
2022/06/19 04:02:52;;;;;;;9.07;7.37;;;22.80;56.30;;;23.94;55.63;100272.03;5058940;28;20426;-74
2022/06/19 04:05:23;;;;;;;8.13;7.43;;;22.90;54.60;;;24.07;55.19;100265.69;5052026;28;20467;-72
2022/06/19 04:07:52;;;;;;;13.10;8.27;;;23.00;51.80;;;24.12;54.98;100268.34;5050624;28;20492;-74
2022/06/19 04:10:23;;;;;;;8.23;7.43;;;23.10;50.70;;;24.35;54.58;100267.31;5049743;28;20459;-73
2022/06/19 04:12:55;;;;;;;10.27;8.07;;;23.30;48.60;;;24.76;53.57;100260.91;5049896;28;20549;-73
2022/06/19 04:15:24;;;;;;;10.30;9.33;;;23.50;46.10;;;24.96;52.70;100263.25;5050679;28;20443;-73
2022/06/19 04:17:53;;;;;;;8.63;7.40;;;23.80;41.50;;;25.00;52.64;100255.94;5053265;28;20439;-72
2022/06/19 04:20:24;;;;;;;7.90;7.13;;;24.00;40.10;;;25.46;51.92;100247.34;5054413;28;20446;-73
2022/06/19 04:22:53;;;;;;;11.30;8.30;;;24.10;38.50;;;25.80;51.15;100241.19;5053401;28;20497;-73
2022/06/19 04:25:22;;;;;;;9.40;8.60;;;24.40;35.60;;;25.82;50.74;100236.94;5053682;28;20473;-73
2022/06/19 04:27:51;;;;;;;8.93;8.20;;;24.40;33.60;;;25.96;50.32;100226.56;5051497;28;20516;-73
2022/06/19 04:30:23;;;;;;;9.00;8.20;;;24.50;31.90;;;26.20;49.87;100220.63;5051870;28;20482;-73
2022/06/19 04:32:52;;;;;;;8.43;7.73;;;24.70;30.40;;;26.10;49.79;100229.22;5051669;28;20524;-72
2022/06/19 04:35:21;;;;;;;9.50;8.70;;;24.90;28.60;;;26.18;49.59;100225.69;5051108;28;20435;-73
2022/06/19 04:37:52;;;;;;;10.30;9.20;;;24.80;27.80;;;26.75;48.32;100212.56;5048995;28;20490;-74
2022/06/19 04:40:21;;;;;;;9.50;8.17;;;25.10;27.10;;;27.04;47.78;100214.72;5048431;28;21000;-74
2022/06/19 04:42:50;;;;;;;10.00;7.80;;;25.30;25.60;;;27.19;47.18;100214.22;5057953;28;20465;-74
2022/06/19 04:45:19;;;;;;;10.20;9.27;;;25.40;24.30;;;27.34;46.85;100212.06;5063755;28;20549;-74
2022/06/19 04:47:49;;;;;;;9.30;8.50;;;25.30;23.90;;;27.40;46.90;100214.31;5058869;28;20439;-75
2022/06/19 04:50:18;;;;;;;9.40;8.50;;;25.70;22.90;;;27.86;45.96;100219.09;5056760;28;20417;-73
2022/06/19 04:52:47;;;;;;;9.97;8.80;;;26.00;21.20;;;28.20;45.00;100228.47;5057038;28;20469;-73
2022/06/19 04:55:19;;;;;;;10.23;9.27;;;26.30;19.90;;;28.39;44.66;100217.72;5063163;28;20925;-74
2022/06/19 04:57:48;;;;;;;10.20;9.40;;;26.50;18.20;;;28.64;44.26;100222.28;5062090;28;20442;-74
2022/06/19 05:00:20;;;;;;;10.00;9.00;;;26.70;17.00;;;28.91;43.43;100235.69;5056686;28;20471;-73
2022/06/19 05:02:51;;;;;;;8.83;8.00;;;26.70;16.30;;;29.23;43.22;100227.72;5063283;28;20433;-72
2022/06/19 05:05:22;;;;;;;10.77;9.87;;;27.00;15.10;;;29.38;42.72;100223.50;5061155;28;20438;-72
2022/06/19 05:07:52;;;;;;;13.00;10.17;;;27.00;14.60;;;29.63;41.95;100225.97;5061870;28;20514;-74
2022/06/19 05:10:22;;;;;;;9.30;8.60;;;27.20;13.60;;;29.67;41.79;100210.22;5056541;28;20435;-74
2022/06/19 05:12:56;;;;;;;10.27;9.33;;;27.20;12.70;;;29.67;41.78;100210.22;5052845;28;20752;-75
2022/06/19 05:15:26;;;;;;;10.77;9.70;;;27.50;11.90;;;30.21;40.88;100207.22;5058998;28;20421;-75
2022/06/19 05:17:55;;;;;;;13.00;11.80;;;27.70;11.00;;;29.80;41.34;100194.28;5057412;28;20447;-74
2022/06/19 05:20:24;;;;;;;10.30;9.03;;;28.20;9.80;;;30.25;40.75;100191.41;5063344;28;20847;-74
2022/06/19 05:22:53;;;;;;;9.70;8.90;;;28.00;9.10;;;29.80;42.09;100186.75;5063544;28;20516;-74
2022/06/19 05:25:25;;;;;;;11.63;10.50;;;27.80;9.70;;;30.11;41.15;100188.19;5055908;28;20452;-74
2022/06/19 05:27:54;;;;;;;9.47;8.73;;;28.00;9.30;;;29.83;41.15;100185.22;5059892;28;20541;-73
2022/06/19 05:30:23;;;;;;;10.07;9.27;;;28.30;7.90;;;30.40;40.11;100168.38;5061102;28;21003;-73
2022/06/19 05:32:52;;;;;;;10.50;9.40;;;28.10;7.60;;;30.64;39.71;100168.31;5060869;28;20441;-72
2022/06/19 05:35:21;;;;;;;10.50;9.50;;;28.20;7.30;;;30.92;39.13;100167.53;5056079;28;20901;-74
2022/06/19 05:37:51;;;;;;;10.63;9.80;;;28.20;6.70;;;30.80;39.61;100170.34;5058748;28;20467;-73
2022/06/19 05:40:20;;;;;;;15.37;10.37;;;28.20;6.70;;;29.79;41.33;100161.97;5062461;28;20447;-74
2022/06/19 05:42:50;;;;;;;10.00;9.00;;;28.20;7.00;;;28.89;42.52;100151.69;5054766;28;20477;-74
2022/06/19 05:45:20;;;;;;;18.03;10.10;;;27.90;7.20;;;28.62;42.84;100151.38;5061015;28;20833;-74
2022/06/19 05:47:49;;;;;;;10.87;9.97;;;27.70;7.10;;;28.31;43.25;100149.03;5063984;28;20479;-74
2022/06/19 05:50:18;;;;;;;10.27;9.37;;;27.30;7.50;;;27.99;43.79;100139.38;5059750;28;20499;-74
2022/06/19 05:52:47;;;;;;;10.87;9.00;;;27.10;7.40;;;27.59;44.64;100128.63;5064507;28;20459;-74
2022/06/19 05:55:16;;;;;;;9.13;8.17;;;27.10;7.70;;;27.66;44.44;100130.91;5061799;28;20875;-73
2022/06/19 05:57:46;;;;;;;10.07;9.17;;;26.90;7.90;;;27.71;44.25;100127.94;5065259;28;20526;-74
2022/06/19 06:00:17;;;;;;;10.13;9.20;;;26.90;7.90;;;27.95;44.01;100122.56;5060479;28;20431;-74
2022/06/19 06:02:50;;;;;;;11.50;10.10;;;27.00;8.00;;;28.12;43.52;100121.69;5055931;28;20497;-74
2022/06/19 06:05:19;;;;;;;10.27;9.37;;;27.20;7.20;;;28.24;43.35;100135.66;5062481;28;20956;-74
2022/06/19 06:07:49;;;;;;;12.77;10.33;;;27.20;7.40;;;28.31;43.07;100130.38;5062009;28;20846;-73
2022/06/19 06:10:18;;;;;;;10.27;9.33;;;27.40;6.80;;;28.39;42.94;100123.09;5065692;28;20470;-75
2022/06/19 06:12:48;;;;;;;11.13;9.47;;;27.50;6.70;;;28.42;42.13;100125.19;5053052;28;20536;-73
2022/06/19 06:15:19;;;;;;;9.17;8.27;;;27.60;5.60;;;28.59;42.22;100122.28;5058893;28;20433;-74
2022/06/19 06:17:48;;;;;;;12.50;8.70;;;27.60;5.40;;;28.68;42.33;100117.44;5059099;28;20443;-73
2022/06/19 06:20:17;;;;;;;9.60;8.60;;;27.80;5.30;;;28.93;41.67;100105.28;5072584;28;20822;-73
2022/06/19 06:22:46;;;;;;;12.00;8.97;;;28.00;4.70;;;28.94;41.22;100106.91;5064215;28;20468;-76
2022/06/19 06:25:15;;;;;;;13.03;9.60;;;27.90;4.20;;;28.93;41.25;100102.50;5053271;28;20449;-74
2022/06/19 06:27:45;;;;;;;8.87;8.17;;;28.10;3.80;;;28.99;41.07;100099.50;5056358;28;20505;-73
2022/06/19 06:30:15;;;;;;;9.13;8.17;;;28.20;3.70;;;28.91;41.43;100092.84;5058694;28;20441;-73
2022/06/19 06:32:46;;;;;;;8.73;8.07;;;28.40;3.20;;;29.10;40.80;100087.53;5064049;28;20489;-76
2022/06/19 06:35:15;;;;;;;8.93;8.13;;;28.40;2.90;;;29.41;40.47;100086.22;5064271;22;20488;-73
2022/06/19 06:37:44;;;;;;;9.20;8.30;;;28.50;2.60;;;29.44;40.31;100077.97;5033276;28;20719;-72
2022/06/19 06:40:14;;;;;;;10.40;9.37;;;28.70;2.10;;;29.59;40.17;100073.69;5017806;28;21021;-71
2022/06/19 06:42:45;;;;;;;11.23;8.77;;;28.80;1.80;;;29.71;39.95;100068.94;5041451;28;20454;-73
2022/06/19 06:45:15;;;;;;;8.63;7.93;;;28.90;1.70;;;29.69;39.19;100062.88;5036620;28;20446;-73
2022/06/19 06:47:47;;;;;;;9.87;8.97;;;29.00;1.00;;;29.84;39.49;100058.56;5015464;28;20598;-74
2022/06/19 06:50:17;;;;;;;10.87;8.03;;;29.10;1.00;;;29.86;38.82;100044.28;5027552;28;20437;-72
2022/06/19 06:52:46;;;;;;;10.27;8.70;;;29.20;1.00;;;29.76;39.33;100049.19;5025652;28;20502;-72
2022/06/19 06:55:16;;;;;;;9.70;7.40;;;29.30;1.00;;;29.68;38.92;100049.28;5032280;28;20442;-72
2022/06/19 06:57:45;;;;;;;8.97;8.17;;;29.20;1.00;;;29.82;38.66;100040.56;5026402;28;20901;-72
2022/06/19 07:00:20;;;;;;;9.50;8.60;;;29.30;1.00;;;29.64;38.88;100037.22;5012987;28;20444;-73
2022/06/19 07:02:51;;;;;;;9.77;8.67;;;29.20;1.00;;;29.78;38.76;100035.69;5031491;28;20467;-72
2022/06/19 07:05:20;;;;;;;9.63;7.43;;;29.30;1.00;;;29.87;38.16;100024.38;5032195;28;20452;-73
2022/06/19 07:07:49;;;;;;;10.03;8.50;;;29.30;1.00;;;30.25;38.19;100028.75;5032263;28;20496;-74
2022/06/19 07:10:19;;;;;;;11.70;9.63;;;29.50;1.00;;;30.63;37.39;100027.09;5030460;28;20432;-73
2022/06/19 07:12:49;;;;;;;8.70;7.90;;;29.80;1.00;;;30.51;37.19;100035.50;5031971;28;20470;-73
2022/06/19 07:15:18;;;;;;;7.23;6.53;;;30.00;1.00;;;30.44;37.15;100026.91;5032097;28;20472;-73
2022/06/19 07:17:49;;;;;;;9.43;7.63;;;30.00;1.00;;;30.43;37.16;100014.13;5034585;28;20432;-73
2022/06/19 07:20:19;;;;;;;10.70;7.30;;;30.00;1.00;;;30.56;37.49;100007.34;5034285;28;21040;-73
2022/06/19 07:22:48;;;;;;;7.50;6.80;;;30.00;1.00;;;30.68;37.08;100009.25;5035530;28;20468;-73
2022/06/19 07:25:19;;;;;;;8.07;7.30;;;30.10;1.00;;;30.50;37.24;100019.13;5028280;28;20459;-74
2022/06/19 07:27:49;;;;;;;10.63;8.20;;;30.10;1.00;;;30.64;37.53;100003.56;5031020;28;20486;-73
2022/06/19 07:30:25;;;;;;;9.23;7.20;;;30.20;1.00;;;30.94;36.85;100011.53;5014371;28;20509;-73
2022/06/19 07:32:57;;;;;;;9.37;7.07;;;30.30;1.00;;;31.22;36.36;100015.09;5028067;28;20456;-73
2022/06/19 07:35:27;;;;;;;7.13;6.43;;;30.50;1.00;;;31.49;35.73;100008.56;5025387;28;20993;-73
2022/06/19 07:37:56;;;;;;;11.27;7.90;;;30.80;1.00;;;31.69;36.00;100008.63;5029773;28;20483;-73
2022/06/19 07:40:26;;;;;;;7.70;6.90;;;31.00;1.00;;;31.94;35.30;100010.00;5032572;28;20437;-73
2022/06/19 07:42:55;;;;;;;9.07;7.00;;;31.20;1.00;;;31.89;35.18;100008.31;5032914;28;20464;-73
2022/06/19 07:45:25;;;;;;;10.30;7.27;;;31.30;1.00;;;32.24;34.66;100011.06;5032285;28;20534;-73
2022/06/19 07:50:42;;;;;;;7.30;6.43;;;31.70;1.00;;;32.44;34.68;100016.66;5031431;28;20463;-73
2022/06/19 07:53:11;;;;;;;7.77;7.07;;;31.80;1.00;;;32.59;34.48;100035.34;5035171;28;20464;-73
2022/06/19 07:55:40;;;;;;;10.80;5.50;;;32.00;1.00;;;32.50;33.68;100037.56;5010851;28;20554;-73
2022/06/19 07:58:09;;;;;;;10.40;5.60;;;32.00;1.00;;;32.25;33.70;100032.28;5037840;28;20440;-73
2022/06/19 08:00:40;;;;;;;9.00;5.90;;;31.90;1.00;;;32.54;33.51;100038.44;5030165;28;20483;-72
2022/06/19 08:03:11;;;;;;;10.67;6.73;;;32.00;1.00;;;32.66;33.29;100041.13;5031123;28;20824;-73
2022/06/19 08:05:43;;;;;;;9.17;5.63;;;32.20;1.00;;;32.56;33.24;100033.31;5031014;28;20448;-73
2022/06/19 08:08:19;;;;;;;6.50;5.27;;;32.10;1.00;;;32.51;32.62;100040.00;5039511;28;20464;-73
2022/06/19 08:10:52;;;;;;;5.53;4.90;;;32.00;1.00;;;32.81;32.42;100033.81;5035358;28;20741;-73
2022/06/19 08:13:24;;;;;;;5.87;4.80;;;32.30;1.00;;;32.91;32.12;100025.59;5033692;28;20524;-73
2022/06/19 08:15:57;;;;;;;7.70;6.90;;;32.40;1.00;;;33.11;32.08;100024.34;5033020;28;20492;-73
2022/06/19 08:18:28;;;;;;;8.97;5.60;;;32.60;1.00;;;33.37;31.85;100018.00;5032973;28;20434;-74
2022/06/19 08:20:58;;;;;;;9.50;5.87;;;32.70;1.00;;;33.40;31.44;100020.06;5031347;28;20544;-73
2022/06/19 08:23:27;;;;;;;11.30;5.33;;;32.90;1.00;;;33.63;31.28;100005.97;5033584;28;20997;-73
2022/06/19 08:25:57;;;;;;;6.97;5.10;;;33.00;1.00;;;33.65;30.88;100006.41;5033232;28;20500;-73
2022/06/19 08:28:28;;;;;;;11.60;5.90;;;33.20;1.00;;;33.76;30.51;99998.97;5034585;28;20551;-73
2022/06/19 08:30:58;;;;;;;6.43;5.80;;;33.20;1.00;;;33.89;30.83;99994.75;5036834;28;20933;-73
2022/06/19 08:33:28;;;;;;;9.60;5.57;;;33.40;1.00;;;33.99;30.49;100002.50;5028271;28;20537;-74
2022/06/19 08:36:06;;;;;;;10.13;6.70;;;33.50;1.00;;;33.99;30.10;99994.06;5033876;28;20542;-73
2022/06/19 08:38:41;;;;;;;7.00;5.07;;;33.50;1.00;;;33.97;29.94;99985.25;5029589;28;20437;-73
2022/06/19 08:41:44;;;;;;;8.17;6.67;;;33.50;1.00;;;33.91;30.48;99972.72;5029819;28;20547;-73
2022/06/19 08:44:36;;;;;;;8.47;6.67;;;33.50;1.00;;;34.12;29.83;99960.16;5032137;28;20538;-75
2022/06/19 08:47:27;;;;;;;13.60;7.87;;;33.60;1.00;;;34.44;29.77;99959.34;5027130;28;20918;-74
2022/06/19 08:50:17;;;;;;;11.37;8.27;;;33.80;1.00;;;34.57;28.81;99981.56;5032937;28;20452;-75
2022/06/19 08:53:02;;;;;;;8.63;6.30;;;34.00;1.00;;;34.67;28.54;99981.69;5030590;28;21020;-72
2022/06/19 08:55:49;;;;;;;9.57;6.73;;;34.10;1.00;;;34.95;28.37;99974.72;5030732;28;20455;-73
2022/06/19 08:58:30;;;;;;;11.90;8.20;;;34.40;1.00;;;35.09;28.19;99980.47;5022740;28;20905;-73
2022/06/19 09:01:09;;;;;;;11.73;8.27;;;34.50;1.00;;;35.13;28.10;99975.69;5024232;28;20458;-74
2022/06/19 09:06:54;;;;;;;9.13;8.33;;;34.60;1.00;;;35.15;27.73;99959.22;5032494;28;20438;-73
2022/06/19 09:09:47;;;;;;;13.33;8.83;;;34.70;1.00;;;35.22;27.76;99959.31;5041174;28;20850;-73
2022/06/19 09:12:40;;;;;;;10.50;8.20;;;34.70;1.00;;;35.32;27.66;99964.22;5021108;28;20974;-73
2022/06/19 09:15:16;;;;;;;12.83;8.50;;;34.80;1.00;;;35.11;27.80;99961.19;5015035;28;20452;-74
2022/06/19 09:18:01;;;;;;;10.10;7.80;;;34.70;1.00;;;35.05;27.52;99957.16;5037677;28;20446;-74
2022/06/19 09:20:41;;;;;;;9.27;8.30;;;34.70;1.00;;;35.09;27.53;99963.59;5030798;28;21040;-74
2022/06/19 09:23:59;;;;;;;8.87;7.20;;;34.60;1.00;;;35.33;27.33;99951.75;5032380;28;20551;-73
2022/06/19 09:26:37;;;;;;;8.63;7.53;;;34.70;1.00;;;35.42;27.24;99954.22;5029585;28;20967;-74
2022/06/19 09:29:14;;;;;;;14.43;8.77;;;34.90;1.00;;;35.78;26.95;99950.44;5041144;28;20477;-74
2022/06/19 09:31:53;;;;;;;12.30;8.13;;;35.20;1.00;;;35.84;26.91;99940.41;5038638;28;20562;-74
2022/06/19 09:34:32;;;;;;;10.10;6.17;;;35.30;1.00;;;35.61;26.46;99948.31;5042650;28;20435;-74
2022/06/19 09:37:09;;;;;;;9.53;4.43;;;35.30;1.00;;;35.33;25.97;99934.88;5058222;28;20824;-73
2022/06/19 09:39:48;;;;;;;7.90;4.13;;;35.10;1.00;;;35.43;25.96;99934.16;5040672;28;20867;-75
2022/06/19 09:42:23;;;;;;;9.07;3.40;;;35.00;1.00;;;35.65;25.77;99924.66;5061971;28;20447;-75
2022/06/19 09:45:02;;;;;;;12.57;4.40;;;35.10;1.00;;;35.70;25.61;99932.72;5040349;28;20451;-74
2022/06/19 09:47:43;;;;;;;6.70;3.40;;;35.20;1.00;;;35.59;24.89;99931.81;5061451;28;20561;-73
2022/06/19 09:50:40;;;;;;;9.53;4.27;;;35.20;1.00;;;35.39;25.02;99904.38;5063999;28;20508;-74
2022/06/19 09:53:18;;;;;;;8.10;3.47;;;35.10;1.00;;;35.71;24.84;99927.91;5048281;28;20536;-75
2022/06/19 09:56:18;;;;;;;6.40;3.57;;;35.20;1.00;;;36.16;24.92;99932.13;5058121;28;20438;-75
2022/06/19 09:58:55;;;;;;;10.80;3.60;;;35.60;1.00;;;36.25;24.66;99926.91;5049488;28;20506;-73
2022/06/19 10:01:26;;;;;;;12.70;4.60;;;35.70;1.00;;;36.06;24.86;99932.88;5044658;28;20809;-74
2022/06/19 10:04:03;;;;;;;12.10;3.43;;;35.60;1.00;;;35.90;24.72;99924.75;5051978;28;20434;-74
2022/06/19 10:06:42;;;;;;;5.80;2.90;;;35.60;1.00;;;36.01;24.53;99924.81;5034064;28;20480;-75
2022/06/19 10:09:27;;;;;;;6.73;3.70;;;35.60;1.00;;;35.53;25.28;99939.03;5012860;28;20549;-74
2022/06/19 10:12:04;;;;;;;6.07;3.50;;;35.30;1.00;;;35.58;25.49;99935.03;5030532;28;20451;-75
2022/06/19 10:14:42;;;;;;;8.30;3.80;;;35.20;1.00;;;35.64;24.98;99931.44;5032170;28;20450;-73
2022/06/19 10:17:21;;;;;;;6.47;3.43;;;35.20;1.00;;;35.78;25.03;99935.56;5033702;28;20497;-75
2022/06/19 10:19:59;;;;;;;11.63;4.40;;;35.30;1.00;;;35.78;25.14;99927.13;5026786;28;20527;-75
2022/06/19 10:22:50;;;;;;;5.37;3.47;;;35.30;1.00;;;35.86;25.21;99917.50;5033002;28;20459;-74
2022/06/19 10:25:45;;;;;;;8.70;3.50;;;35.40;1.00;;;36.03;24.79;99911.94;5016299;28;20476;-75
2022/06/19 10:28:41;;;;;;;8.77;3.27;;;35.50;1.00;;;36.19;25.12;99908.78;5036531;28;20510;-75
2022/06/19 10:31:29;;;;;;;7.37;3.93;;;35.70;1.00;;;36.25;25.05;99912.03;5037393;28;20876;-75
2022/06/19 10:34:17;;;;;;;5.43;3.93;;;35.70;1.00;;;36.42;24.91;99917.69;5034333;28;20463;-77
2022/06/19 10:36:59;;;;;;;5.77;4.13;;;35.90;1.00;;;36.39;24.31;99907.22;5036362;28;20459;-75
2022/06/19 10:39:47;;;;;;;8.60;3.97;;;36.00;1.00;;;36.36;24.50;99904.41;5033226;28;20798;-75
2022/06/19 10:42:26;;;;;;;6.83;3.70;;;35.90;1.00;;;36.41;24.41;99899.16;5032917;28;20468;-75
2022/06/19 10:45:16;;;;;;;6.87;3.50;;;35.90;1.00;;;36.61;24.65;99904.44;5039080;28;20470;-74
2022/06/19 10:48:15;;;;;;;10.70;3.90;;;36.10;1.00;;;36.47;24.39;99897.56;5034762;28;20454;-74
2022/06/19 10:50:55;;;;;;;5.40;3.47;;;36.10;1.00;;;36.88;24.87;99895.22;5039605;28;20464;-74